Time;durP1;ratioP1;P1;durP2;ratioP2;P2;SDS_P1;SDS_P2;PMS_P1;PMS_P2;Temp;Humidity;BMP_temperature;BMP_pressure;BME280_temperature;BME280_humidity;BME280_pressure;Samples;Min_cycle;Max_cycle;Signal;HPM_P1;HPM_P2
2023/03/28 00:01:54;;;;;;;0.30;0.30;;;14.90;69.40;;;;;;4978239;28;20215;-92
2023/03/28 00:04:25;;;;;;;0.10;0.10;;;15.00;70.60;;;;;;4979034;28;20211;-92
2023/03/28 00:06:55;;;;;;;0.27;0.27;;;15.10;70.80;;;;;;4980728;28;20203;-93
2023/03/28 00:09:28;;;;;;;0.17;0.17;;;15.00;70.80;;;;;;4979988;28;20265;-87
2023/03/28 00:11:59;;;;;;;0.57;0.30;;;15.00;70.30;;;;;;4971288;28;20234;-88
2023/03/28 00:14:34;;;;;;;0.30;0.30;;;14.90;72.60;;;;;;4967170;28;20207;-92
2023/03/28 00:17:07;;;;;;;0.47;0.30;;;14.80;69.20;;;;;;4990085;28;20276;-93
2023/03/28 00:19:40;;;;;;;0.50;0.30;;;14.70;69.30;;;;;;4993377;28;20214;-92
2023/03/28 00:22:11;;;;;;;0.90;0.40;;;14.60;68.80;;;;;;4989213;28;20242;-92
2023/03/28 00:24:43;;;;;;;0.40;0.40;;;14.40;68.40;;;;;;4978701;28;20231;-91
2023/03/28 00:27:14;;;;;;;1.50;0.40;;;14.10;70.70;;;;;;4979747;28;20299;-92
2023/03/28 00:29:45;;;;;;;0.23;0.23;;;14.10;70.50;;;;;;4977707;28;20218;-89
2023/03/28 00:32:16;;;;;;;0.20;0.20;;;14.10;69.80;;;;;;4977443;28;20230;-90
2023/03/28 00:34:47;;;;;;;0.80;0.40;;;14.20;68.20;;;;;;4980151;28;20238;-91
2023/03/28 00:37:18;;;;;;;0.70;0.40;;;14.30;69.40;;;;;;4975790;28;20211;-92
2023/03/28 00:39:52;;;;;;;2.90;0.40;;;14.20;70.90;;;;;;4976016;28;20741;-90
2023/03/28 00:42:24;;;;;;;0.50;0.33;;;14.10;68.30;;;;;;4977171;28;20207;-90
2023/03/28 00:44:56;;;;;;;0.50;0.37;;;13.80;68.00;;;;;;4976039;28;20262;-90
2023/03/28 00:47:39;;;;;;;0.97;0.40;;;13.80;68.60;;;;;;4975471;28;20269;-90
2023/03/28 00:50:18;;;;;;;0.47;0.40;;;13.80;68.70;;;;;;4977657;28;20210;-90
2023/03/28 00:52:54;;;;;;;2.73;0.47;;;13.80;69.30;;;;;;4976687;28;20749;-91
2023/03/28 00:55:32;;;;;;;1.07;0.50;;;13.80;68.10;;;;;;4995413;28;20229;-92
2023/03/28 00:58:06;;;;;;;1.60;0.80;;;13.70;70.60;;;;;;4970260;28;20207;-90
2023/03/28 01:00:40;;;;;;;1.60;0.30;;;13.70;69.10;;;;;;4973047;28;20215;-90
2023/03/28 01:03:12;;;;;;;0.20;0.20;;;13.50;71.00;;;;;;4972023;28;20213;-90
2023/03/28 01:05:48;;;;;;;1.40;0.40;;;13.50;68.80;;;;;;4970709;28;20204;-90
2023/03/28 01:08:25;;;;;;;2.00;0.37;;;13.20;67.50;;;;;;4955053;28;20208;-90
2023/03/28 01:10:59;;;;;;;0.30;0.30;;;13.10;70.90;;;;;;4976329;28;20274;-91
2023/03/28 01:13:35;;;;;;;0.20;0.20;;;13.00;68.60;;;;;;4979019;28;20588;-90
2023/03/28 01:16:08;;;;;;;0.40;0.40;;;13.00;69.50;;;;;;4978317;28;20210;-88
2023/03/28 01:18:40;;;;;;;0.70;0.40;;;12.70;69.80;;;;;;4977652;28;20207;-89
2023/03/28 01:21:47;;;;;;;0.47;0.23;;;12.70;71.80;;;;;;4979104;28;20238;-94
2023/03/28 01:24:59;;;;;;;0.67;0.40;;;12.60;69.30;;;;;;4960605;28;20250;-92
2023/03/28 01:27:40;;;;;;;0.20;0.20;;;12.60;70.20;;;;;;4977641;28;20210;-93
2023/03/28 01:30:52;;;;;;;0.20;0.20;;;12.60;70.00;;;;;;4971890;28;20212;-93
2023/03/28 01:34:07;;;;;;;0.60;0.40;;;12.60;71.20;;;;;;4962238;28;20251;-92
2023/03/28 01:36:58;;;;;;;0.57;0.40;;;12.50;73.90;;;;;;4951183;28;20215;-93
2023/03/28 01:39:41;;;;;;;1.17;0.50;;;12.40;72.60;;;;;;4976117;28;20274;-92
2023/03/28 01:42:23;;;;;;;0.50;0.40;;;12.30;70.80;;;;;;4978522;28;20211;-92
2023/03/28 01:45:04;;;;;;;1.57;0.40;;;12.30;72.30;;;;;;4968197;28;20211;-93
2023/03/28 01:47:41;;;;;;;1.43;0.60;;;12.20;71.80;;;;;;4963507;28;20254;-94
2023/03/28 01:50:18;;;;;;;0.90;0.60;;;12.10;72.30;;;;;;4973362;28;20230;-91
2023/03/28 01:52:59;;;;;;;3.20;0.50;;;12.00;72.40;;;;;;4978736;28;20257;-94
2023/03/28 01:55:36;;;;;;;2.03;0.70;;;11.90;74.90;;;;;;4979794;28;20265;-93
2023/03/28 01:58:18;;;;;;;1.73;0.77;;;11.80;76.00;;;;;;4976298;28;20271;-94
2023/03/28 02:00:55;;;;;;;0.47;0.47;;;11.70;76.40;;;;;;4979400;28;20586;-93
2023/03/28 02:03:31;;;;;;;0.57;0.57;;;11.50;79.60;;;;;;4979299;28;20213;-88
2023/03/28 02:06:06;;;;;;;1.77;0.70;;;11.40;77.00;;;;;;4977328;28;20237;-91
2023/03/28 02:08:41;;;;;;;0.73;0.50;;;11.30;78.10;;;;;;4972040;28;20232;-94
2023/03/28 02:11:12;;;;;;;1.03;0.60;;;11.30;80.10;;;;;;4980057;28;20202;-94
2023/03/28 02:13:48;;;;;;;0.63;0.50;;;11.20;81.70;;;;;;4982823;28;20234;-93
2023/03/28 02:16:23;;;;;;;2.53;0.57;;;11.00;80.40;;;;;;4988888;28;20219;-93
2023/03/28 02:18:56;;;;;;;0.47;0.40;;;10.90;82.70;;;;;;4980959;28;20207;-94
2023/03/28 02:21:31;;;;;;;1.03;0.50;;;10.80;80.10;;;;;;4975659;28;20258;-91
2023/03/28 02:24:04;;;;;;;1.67;0.47;;;10.80;78.90;;;;;;4989375;28;20206;-93
2023/03/28 02:26:36;;;;;;;0.70;0.50;;;10.70;82.20;;;;;;4991985;28;20222;-95
2023/03/28 02:29:09;;;;;;;0.60;0.53;;;10.70;80.90;;;;;;4985268;28;20257;-90
2023/03/28 02:31:41;;;;;;;8.87;0.73;;;10.60;81.10;;;;;;4978187;28;20207;-91
2023/03/28 02:34:12;;;;;;;62.87;38.10;;;10.50;84.20;;;;;;4977459;28;20273;-91
2023/03/28 02:36:53;;;;;;;5.63;3.23;;;10.40;83.80;;;;;;4968412;28;20654;-91
2023/03/28 02:39:47;;;;;;;1.17;0.70;;;10.40;82.20;;;;;;4978116;28;20215;-91
2023/03/28 02:42:50;;;;;;;1.13;0.53;;;10.30;83.60;;;;;;4963460;28;20273;-89
2023/03/28 02:46:05;;;;;;;1.30;1.30;;;10.20;85.30;;;;;;4953444;28;20665;-92
2023/03/28 02:48:53;;;;;;;2.90;2.70;;;10.10;84.10;;;;;;4946357;28;20295;-91
2023/03/28 02:51:33;;;;;;;0.57;0.50;;;10.00;83.70;;;;;;4977398;28;20602;-92
2023/03/28 02:54:16;;;;;;;1.57;0.70;;;10.00;86.50;;;;;;4978278;28;20245;-92
2023/03/28 02:57:00;;;;;;;2.10;0.60;;;9.80;86.70;;;;;;4966840;28;20918;-91
2023/03/28 02:59:36;;;;;;;0.80;0.80;;;9.70;88.90;;;;;;4974254;28;20207;-92
2023/03/28 03:02:08;;;;;;;2.03;0.87;;;9.70;87.50;;;;;;4973467;28;20214;-91
2023/03/28 03:04:39;;;;;;;4.27;0.50;;;9.60;90.30;;;;;;4979519;28;20207;-93
2023/03/28 03:07:11;;;;;;;0.77;0.60;;;9.60;90.00;;;;;;4976164;28;20856;-94
2023/03/28 03:09:44;;;;;;;1.90;0.40;;;9.50;90.80;;;;;;4980113;28;20210;-92
2023/03/28 03:12:18;;;;;;;1.40;0.60;;;9.40;90.60;;;;;;4981386;28;20246;-93
2023/03/28 03:14:50;;;;;;;1.70;0.57;;;9.30;92.00;;;;;;4976495;28;20305;-92
2023/03/28 03:17:22;;;;;;;1.53;0.50;;;9.20;91.40;;;;;;4979980;28;20226;-93
2023/03/28 03:19:54;;;;;;;0.50;0.50;;;9.00;93.20;;;;;;4961327;28;20227;-92
2023/03/28 03:22:26;;;;;;;0.90;0.50;;;9.00;92.00;;;;;;4963802;28;20204;-92
2023/03/28 03:25:03;;;;;;;0.40;0.40;;;8.90;93.70;;;;;;4975394;28;20210;-91
2023/03/28 03:27:38;;;;;;;0.50;0.37;;;8.90;95.00;;;;;;4982830;28;20214;-93
2023/03/28 03:30:11;;;;;;;1.17;0.70;;;8.80;95.50;;;;;;4963605;28;20281;-93
2023/03/28 03:32:44;;;;;;;1.07;0.40;;;8.70;94.70;;;;;;4975148;28;20733;-93
2023/03/28 03:35:16;;;;;;;1.50;0.50;;;8.60;95.10;;;;;;4978826;28;20658;-94
2023/03/28 03:37:48;;;;;;;2.30;0.60;;;8.60;95.60;;;;;;4969158;28;20642;-94
2023/03/28 03:40:20;;;;;;;1.57;0.80;;;8.50;96.50;;;;;;4957430;28;20211;-93
2023/03/28 03:42:54;;;;;;;0.73;0.50;;;8.40;97.10;;;;;;4967430;28;20221;-94
2023/03/28 03:45:26;;;;;;;0.50;0.47;;;8.40;97.20;;;;;;4973865;28;20215;-92
2023/03/28 03:47:57;;;;;;;0.77;0.63;;;8.30;98.60;;;;;;4975794;28;20207;-92
2023/03/28 03:50:29;;;;;;;0.53;0.47;;;8.20;99.70;;;;;;4974373;28;20274;-92
2023/03/28 03:53:01;;;;;;;2.20;0.70;;;8.10;99.90;;;;;;4971118;28;20218;-92
2023/03/28 03:55:33;;;;;;;0.60;0.60;;;8.10;99.90;;;;;;4971599;28;20299;-93
2023/03/28 03:58:07;;;;;;;1.33;0.63;;;8.00;99.70;;;;;;4976618;28;20359;-93
2023/03/28 04:00:39;;;;;;;1.87;0.40;;;8.00;99.30;;;;;;4977747;28;20206;-91
2023/03/28 04:03:11;;;;;;;1.27;0.70;;;8.00;99.90;;;;;;4976406;28;20211;-91
2023/03/28 04:05:56;;;;;;;1.23;0.50;;;7.90;99.90;;;;;;4972647;28;20217;-92
2023/03/28 04:08:29;;;;;;;0.60;0.43;;;7.90;99.90;;;;;;4973947;28;20601;-92
2023/03/28 04:11:00;;;;;;;0.50;0.50;;;7.80;99.90;;;;;;4975894;28;20666;-94
2023/03/28 04:13:37;;;;;;;0.73;0.50;;;7.90;99.90;;;;;;4975147;28;20298;-94
2023/03/28 04:16:10;;;;;;;1.40;0.50;;;7.90;98.20;;;;;;4975034;28;20296;-94
2023/03/28 04:18:49;;;;;;;0.47;0.40;;;7.90;98.00;;;;;;4976223;28;20217;-94
2023/03/28 04:21:24;;;;;;;0.40;0.30;;;7.80;99.20;;;;;;4970585;28;20206;-93
2023/03/28 04:23:56;;;;;;;1.50;0.30;;;7.80;99.00;;;;;;4975807;28;20632;-93
2023/03/28 04:26:29;;;;;;;0.57;0.50;;;7.80;99.10;;;;;;4973407;28;20258;-92
2023/03/28 04:29:04;;;;;;;0.47;0.30;;;7.80;98.80;;;;;;4967738;28;20234;-94
2023/03/28 04:31:37;;;;;;;0.60;0.30;;;7.70;98.90;;;;;;4993048;28;20203;-94
2023/03/28 04:34:09;;;;;;;0.50;0.30;;;7.70;96.70;;;;;;4995034;28;20227;-94
2023/03/28 04:36:40;;;;;;;0.30;0.30;;;7.70;97.20;;;;;;4992455;28;20230;-93
2023/03/28 04:39:12;;;;;;;3.20;0.40;;;7.60;99.70;;;;;;4995595;28;20195;-94
2023/03/28 04:41:45;;;;;;;0.60;0.40;;;7.60;99.30;;;;;;4986373;28;20208;-93
2023/03/28 04:47:00;;;;;;;0.60;0.40;;;7.50;99.10;;;;;;5008291;23;20265;-92
2023/03/28 04:49:33;;;;;;;0.43;0.40;;;7.50;98.30;;;;;;4991553;28;20210;-91
2023/03/28 04:52:28;;;;;;;0.67;0.40;;;7.50;96.20;;;;;;5356029;23;20325;-91
2023/03/28 04:55:30;;;;;;;0.67;0.53;;;7.50;95.10;;;;;;5002056;28;20227;-92
2023/03/28 05:03:43;;;;;;;0.40;0.40;;;7.50;95.00;;;;;;5686520;23;20227;-89
2023/03/28 05:09:06;;;;;;;0.70;0.40;;;7.50;92.80;;;;;;5054994;23;20240;-93
2023/03/28 05:14:26;;;;;;;2.13;0.40;;;7.50;93.20;;;;;;5812084;23;20246;-93
2023/03/28 05:17:03;;;;;;;0.40;0.40;;;7.50;92.10;;;;;;4972907;28;20200;-95
2023/03/28 05:19:58;;;;;;;0.70;0.30;;;7.50;93.00;;;;;;5033468;23;20221;-93
2023/03/28 05:22:38;;;;;;;1.87;0.50;;;7.50;92.60;;;;;;5003451;28;20203;-93
2023/03/28 05:25:15;;;;;;;0.70;0.40;;;7.50;92.40;;;;;;4997064;28;20580;-94
2023/03/28 05:27:47;;;;;;;1.37;0.50;;;7.50;93.80;;;;;;4990603;28;20206;-93
2023/03/28 05:30:19;;;;;;;2.93;0.50;;;7.50;93.40;;;;;;4992699;28;20210;-94
2023/03/28 05:32:55;;;;;;;0.40;0.30;;;7.40;92.50;;;;;;5008028;28;20225;-93
2023/03/28 05:35:32;;;;;;;0.40;0.40;;;7.40;93.50;;;;;;5007824;28;20309;-93
2023/03/28 05:38:05;;;;;;;1.60;0.50;;;7.40;93.80;;;;;;5003478;28;20262;-93
2023/03/28 05:40:38;;;;;;;1.53;0.50;;;7.30;92.00;;;;;;5010860;28;20225;-94
2023/03/28 05:43:15;;;;;;;0.50;0.40;;;7.30;92.60;;;;;;5008265;28;20214;-94
2023/03/28 05:45:48;;;;;;;0.50;0.50;;;7.30;93.70;;;;;;5006990;28;20237;-94
2023/03/28 05:48:20;;;;;;;2.00;0.50;;;7.30;92.30;;;;;;5008523;28;20198;-93
2023/03/28 05:50:55;;;;;;;1.87;0.40;;;7.30;94.10;;;;;;4998920;28;20214;-92
2023/03/28 05:53:28;;;;;;;0.80;0.50;;;7.20;95.30;;;;;;4983078;28;20207;-91
2023/03/28 05:55:59;;;;;;;1.00;0.63;;;7.10;95.70;;;;;;4986977;28;20721;-92
2023/03/28 05:58:31;;;;;;;2.33;0.60;;;7.10;95.70;;;;;;4981838;28;20203;-92
2023/03/28 06:01:03;;;;;;;2.37;0.37;;;7.10;95.70;;;;;;4977824;28;20758;-93
2023/03/28 06:03:38;;;;;;;0.90;0.50;;;7.00;94.30;;;;;;4982707;28;20199;-92
2023/03/28 06:06:12;;;;;;;2.63;0.60;;;7.00;94.30;;;;;;4977909;28;20290;-93
2023/03/28 06:08:44;;;;;;;1.70;0.43;;;7.00;96.30;;;;;;4980862;28;20204;-92
2023/03/28 06:11:16;;;;;;;1.53;0.70;;;6.90;96.00;;;;;;4987972;28;20196;-92
2023/03/28 06:13:49;;;;;;;0.40;0.40;;;6.90;96.90;;;;;;4997206;28;20214;-92
2023/03/28 06:16:20;;;;;;;0.40;0.40;;;6.90;96.80;;;;;;4987543;28;20318;-93
2023/03/28 06:19:00;;;;;;;0.90;0.50;;;6.80;97.80;;;;;;4992344;28;20352;-93
2023/03/28 06:21:49;;;;;;;0.87;0.50;;;6.80;97.30;;;;;;4984012;28;20259;-94
2023/03/28 06:24:21;;;;;;;0.67;0.30;;;6.80;97.70;;;;;;4984168;28;20199;-93
2023/03/28 06:26:52;;;;;;;0.53;0.50;;;6.70;98.80;;;;;;4985791;28;20685;-92
2023/03/28 06:29:24;;;;;;;1.47;0.50;;;6.70;98.20;;;;;;4993285;28;20207;-93
2023/03/28 06:31:56;;;;;;;1.40;0.50;;;6.60;99.60;;;;;;4979359;28;20266;-93
2023/03/28 06:34:27;;;;;;;0.97;0.60;;;6.60;98.40;;;;;;4979950;28;20314;-94
2023/03/28 06:37:00;;;;;;;0.90;0.73;;;6.60;98.30;;;;;;4986414;28;20683;-93
2023/03/28 06:39:32;;;;;;;1.87;0.60;;;6.60;97.30;;;;;;4990611;28;20214;-93
2023/03/28 06:42:04;;;;;;;1.27;0.70;;;6.60;98.90;;;;;;5001715;28;20210;-93
2023/03/28 06:44:36;;;;;;;1.93;0.83;;;6.60;98.60;;;;;;5011043;28;20210;-94
2023/03/28 06:47:07;;;;;;;1.97;0.70;;;6.60;98.80;;;;;;4998192;28;20238;-92
2023/03/28 06:49:38;;;;;;;1.17;0.60;;;6.60;98.60;;;;;;4989699;28;20670;-93
2023/03/28 06:52:12;;;;;;;0.80;0.50;;;6.60;99.90;;;;;;4990905;28;20203;-93
2023/03/28 06:54:43;;;;;;;1.03;0.70;;;6.50;99.90;;;;;;4994574;28;20715;-91
2023/03/28 06:57:17;;;;;;;1.07;0.50;;;6.50;99.90;;;;;;4988531;28;20237;-92
2023/03/28 06:59:50;;;;;;;0.97;0.57;;;6.50;99.90;;;;;;4980992;28;20242;-91
2023/03/28 07:02:21;;;;;;;0.70;0.50;;;6.50;99.60;;;;;;4982728;28;20211;-92
2023/03/28 07:04:54;;;;;;;1.57;0.60;;;6.60;96.00;;;;;;4977290;28;20238;-92
2023/03/28 07:07:28;;;;;;;1.20;0.70;;;6.60;97.80;;;;;;4977454;28;20206;-92
2023/03/28 07:09:59;;;;;;;0.93;0.50;;;6.60;97.80;;;;;;4976538;28;20211;-91
2023/03/28 07:12:30;;;;;;;3.37;0.63;;;6.60;98.70;;;;;;4984763;28;20665;-91
2023/03/28 07:15:01;;;;;;;1.23;0.60;;;6.60;99.90;;;;;;4994859;28;20655;-92
2023/03/28 07:17:32;;;;;;;1.73;0.50;;;6.50;99.90;;;;;;4992727;28;20278;-91
2023/03/28 07:20:04;;;;;;;0.97;0.60;;;6.50;99.40;;;;;;4978583;28;20222;-91
2023/03/28 07:22:38;;;;;;;0.60;0.60;;;6.50;99.90;;;;;;4988172;28;20236;-91
2023/03/28 07:25:10;;;;;;;1.60;0.50;;;6.50;99.60;;;;;;4980354;28;20724;-93
2023/03/28 07:27:42;;;;;;;1.77;0.60;;;6.60;99.90;;;;;;4982436;28;20268;-92
2023/03/28 07:30:15;;;;;;;0.60;0.50;;;6.60;99.90;;;;;;4994295;28;20241;-93
2023/03/28 07:32:47;;;;;;;0.50;0.50;;;6.60;98.80;;;;;;4983186;28;20210;-93
2023/03/28 07:35:39;;;;;;;0.83;0.60;;;6.70;97.70;;;;;;4986489;28;20222;-93
2023/03/28 07:38:13;;;;;;;0.93;0.60;;;6.80;96.90;;;;;;4979730;28;20660;-94
2023/03/28 07:40:45;;;;;;;2.80;0.80;;;6.80;97.20;;;;;;4995084;28;20209;-92
2023/03/28 07:43:17;;;;;;;2.83;0.50;;;6.80;97.70;;;;;;4996212;28;20263;-93
2023/03/28 07:45:49;;;;;;;2.50;0.80;;;6.90;98.70;;;;;;4991868;28;20243;-94
2023/03/28 07:48:21;;;;;;;1.90;0.60;;;6.90;99.30;;;;;;4981677;28;20746;-93
2023/03/28 07:50:53;;;;;;;1.53;0.60;;;6.90;98.50;;;;;;4992282;28;20217;-92
2023/03/28 07:53:27;;;;;;;2.37;0.63;;;6.90;97.50;;;;;;4976203;28;20218;-92
2023/03/28 07:56:00;;;;;;;0.70;0.53;;;7.00;96.50;;;;;;4986863;28;20229;-93
2023/03/28 07:58:31;;;;;;;2.40;0.83;;;7.10;96.40;;;;;;4994748;28;20214;-93
2023/03/28 08:01:06;;;;;;;1.20;0.60;;;7.10;96.80;;;;;;4995211;28;20214;-91
2023/03/28 08:03:38;;;;;;;1.80;0.50;;;7.10;96.10;;;;;;4982519;28;20207;-91
2023/03/28 08:06:12;;;;;;;0.90;0.77;;;7.10;96.10;;;;;;4982538;28;20657;-91
2023/03/28 08:09:02;;;;;;;1.13;0.70;;;7.10;96.50;;;;;;4994716;28;20214;-93
2023/03/28 08:11:34;;;;;;;0.70;0.63;;;7.20;95.70;;;;;;4995470;28;20213;-93
2023/03/28 08:14:08;;;;;;;1.50;0.70;;;7.10;97.00;;;;;;4995781;28;20229;-91
2023/03/28 08:16:39;;;;;;;0.83;0.70;;;7.10;96.20;;;;;;4996779;28;20241;-92
2023/03/28 08:19:10;;;;;;;1.13;0.70;;;7.20;95.00;;;;;;4996298;28;20272;-91
2023/03/28 08:21:41;;;;;;;1.43;0.80;;;7.20;96.00;;;;;;5002418;28;20210;-90
2023/03/28 08:24:14;;;;;;;1.00;0.70;;;7.20;96.30;;;;;;5000888;28;20210;-90
2023/03/28 08:26:58;;;;;;;1.47;0.70;;;7.20;97.40;;;;;;4997529;28;20202;-91
2023/03/28 08:29:29;;;;;;;1.13;0.60;;;7.20;97.70;;;;;;4995334;28;20206;-93
2023/03/28 08:32:02;;;;;;;2.57;0.80;;;7.10;98.70;;;;;;4992447;28;20409;-92
2023/03/28 08:34:34;;;;;;;1.63;0.70;;;7.10;98.00;;;;;;4976573;28;20219;-92
2023/03/28 08:37:07;;;;;;;2.37;0.90;;;7.10;99.50;;;;;;4975646;28;20721;-92
2023/03/28 08:39:41;;;;;;;0.60;0.60;;;7.10;98.00;;;;;;4977182;28;20736;-93
2023/03/28 08:42:43;;;;;;;2.30;0.50;;;7.10;98.30;;;;;;4976594;28;20624;-93
2023/03/28 08:45:27;;;;;;;0.73;0.53;;;7.10;98.80;;;;;;4974292;28;20206;-92
2023/03/28 08:48:08;;;;;;;0.77;0.60;;;7.10;99.00;;;;;;4976644;28;20203;-92
2023/03/28 08:50:44;;;;;;;1.77;0.57;;;7.10;99.90;;;;;;4996635;28;20199;-93
2023/03/28 08:53:25;;;;;;;0.57;0.50;;;7.10;99.90;;;;;;4996647;28;20192;-91
2023/03/28 08:56:01;;;;;;;1.10;0.50;;;7.00;99.60;;;;;;4990724;28;20640;-92
2023/03/28 08:58:41;;;;;;;1.80;0.67;;;7.10;99.90;;;;;;4995808;28;20204;-92
2023/03/28 09:01:15;;;;;;;0.87;0.60;;;7.00;99.90;;;;;;4977740;28;20203;-92
2023/03/28 09:03:48;;;;;;;1.13;0.60;;;7.00;99.90;;;;;;4976653;28;20223;-91
2023/03/28 09:06:28;;;;;;;1.90;0.60;;;7.00;99.90;;;;;;4981274;28;20226;-92
2023/03/28 09:09:33;;;;;;;1.27;0.67;;;7.00;99.90;;;;;;4975801;28;20206;-92
2023/03/28 09:12:27;;;;;;;2.93;0.70;;;7.00;99.90;;;;;;4974331;28;20202;-91
2023/03/28 09:15:22;;;;;;;2.47;0.60;;;7.00;99.90;;;;;;4975740;28;20721;-92
2023/03/28 09:18:06;;;;;;;0.90;0.60;;;7.00;99.90;;;;;;4969790;28;20235;-91
2023/03/28 09:20:44;;;;;;;6.57;1.00;;;7.00;99.90;;;;;;4976458;28;20285;-92
2023/03/28 09:23:33;;;;;;;1.77;0.60;;;7.10;99.90;;;;;;4983540;28;20297;-91
2023/03/28 09:26:08;;;;;;;1.10;0.50;;;7.10;99.90;;;;;;4976806;28;20226;-90
2023/03/28 09:28:49;;;;;;;1.20;0.70;;;7.10;99.90;;;;;;4974916;28;20211;-91
2023/03/28 09:31:26;;;;;;;1.83;0.70;;;7.10;99.90;;;;;;5001489;28;20205;-91
2023/03/28 09:33:59;;;;;;;1.07;0.50;;;7.10;99.90;;;;;;5006167;28;20221;-93
2023/03/28 09:36:36;;;;;;;0.50;0.50;;;7.10;99.90;;;;;;4998939;28;20242;-93
2023/03/28 09:39:31;;;;;;;1.53;0.70;;;7.00;99.90;;;;;;4998025;28;20250;-93
2023/03/28 09:42:08;;;;;;;3.20;0.90;;;7.00;99.90;;;;;;4999249;28;20206;-91
2023/03/28 09:44:45;;;;;;;0.90;0.80;;;6.90;99.90;;;;;;4998995;28;20648;-93
2023/03/28 09:47:25;;;;;;;0.90;0.70;;;6.90;99.90;;;;;;4997968;28;20660;-92
2023/03/28 09:49:57;;;;;;;2.20;0.70;;;6.90;99.90;;;;;;5000167;28;20226;-92
2023/03/28 09:52:42;;;;;;;0.87;0.70;;;6.90;99.90;;;;;;5003837;28;20257;-92
2023/03/28 09:55:20;;;;;;;1.53;0.80;;;6.90;99.90;;;;;;5002834;28;20301;-93
2023/03/28 09:58:10;;;;;;;1.27;0.70;;;6.90;99.90;;;;;;5002151;28;20711;-92
2023/03/28 10:00:47;;;;;;;4.00;0.90;;;6.90;99.90;;;;;;5003935;28;20210;-91
2023/03/28 10:03:31;;;;;;;1.40;0.97;;;6.90;99.90;;;;;;5005333;28;20206;-92
2023/03/28 10:06:18;;;;;;;1.37;0.63;;;7.00;99.90;;;;;;5004525;28;20206;-92
2023/03/28 10:08:50;;;;;;;0.70;0.60;;;6.90;99.90;;;;;;4991410;28;20219;-91
2023/03/28 10:11:22;;;;;;;0.97;0.80;;;6.90;99.90;;;;;;4998984;28;20215;-92
2023/03/28 10:13:55;;;;;;;1.80;0.87;;;6.90;99.90;;;;;;5001740;28;20241;-91
2023/03/28 10:16:31;;;;;;;0.80;0.70;;;6.90;99.90;;;;;;4996300;28;20234;-91
2023/03/28 10:19:02;;;;;;;2.07;0.60;;;6.80;99.90;;;;;;4995378;28;20215;-91
2023/03/28 10:21:33;;;;;;;2.33;0.87;;;6.80;99.90;;;;;;4991127;28;20250;-91
2023/03/28 10:24:07;;;;;;;1.90;0.67;;;6.80;99.90;;;;;;4990769;28;20207;-90
2023/03/28 10:26:39;;;;;;;3.53;0.77;;;6.80;99.90;;;;;;4984643;28;20234;-91
2023/03/28 10:29:12;;;;;;;0.97;0.80;;;6.80;99.90;;;;;;4982039;28;20207;-91
2023/03/28 10:31:50;;;;;;;1.47;0.90;;;6.70;99.90;;;;;;4982568;28;20284;-90
2023/03/28 10:34:29;;;;;;;0.70;0.70;;;6.70;99.90;;;;;;4991432;28;20199;-91
2023/03/28 10:37:01;;;;;;;1.63;0.80;;;6.70;99.90;;;;;;4982633;28;20238;-91
2023/03/28 10:39:34;;;;;;;1.77;1.00;;;6.70;99.90;;;;;;4992877;28;20231;-92
2023/03/28 10:42:06;;;;;;;1.67;0.80;;;6.70;99.90;;;;;;4987673;28;20230;-91
2023/03/28 10:44:39;;;;;;;3.00;0.90;;;6.70;99.90;;;;;;4981581;28;20898;-92
2023/03/28 10:47:19;;;;;;;1.57;1.03;;;6.70;99.90;;;;;;4982433;28;20692;-92
2023/03/28 10:49:55;;;;;;;2.93;0.70;;;6.60;99.90;;;;;;4982084;28;20245;-90
2023/03/28 10:52:34;;;;;;;2.20;1.30;;;6.60;99.90;;;;;;4982462;28;20207;-92
2023/03/28 10:55:14;;;;;;;2.00;0.80;;;6.50;99.90;;;;;;4983472;28;20218;-91
2023/03/28 10:57:56;;;;;;;1.47;0.97;;;6.50;99.90;;;;;;4982726;28;20361;-93
2023/03/28 11:00:32;;;;;;;1.47;1.00;;;6.40;99.90;;;;;;4994059;28;20191;-91
2023/03/28 11:03:16;;;;;;;1.47;0.70;;;6.40;99.90;;;;;;4997215;28;20199;-92
2023/03/28 11:05:53;;;;;;;0.80;0.70;;;6.40;99.90;;;;;;4989606;28;20561;-92
2023/03/28 11:08:49;;;;;;;1.30;0.77;;;6.30;99.90;;;;;;4983011;28;20235;-91
2023/03/28 11:11:47;;;;;;;1.70;0.80;;;6.30;99.90;;;;;;4977523;28;20229;-92
2023/03/28 11:14:27;;;;;;;2.47;1.10;;;6.20;99.90;;;;;;4977774;28;20207;-91
2023/03/28 11:17:06;;;;;;;1.00;0.80;;;6.20;99.90;;;;;;4976168;28;20241;-91
2023/03/28 11:20:07;;;;;;;2.00;0.80;;;6.10;99.90;;;;;;4976117;28;20218;-91
2023/03/28 11:22:52;;;;;;;4.83;0.80;;;6.10;99.90;;;;;;4976915;28;20285;-90
2023/03/28 11:25:44;;;;;;;1.10;0.87;;;6.10;99.90;;;;;;4976590;28;20278;-90
2023/03/28 11:28:29;;;;;;;1.37;0.97;;;6.00;99.90;;;;;;4975845;28;20588;-91
2023/03/28 11:31:02;;;;;;;1.13;0.80;;;6.00;99.90;;;;;;4975933;28;20199;-91
2023/03/28 11:33:41;;;;;;;1.20;0.60;;;6.00;99.90;;;;;;4977275;28;20211;-91
2023/03/28 11:36:18;;;;;;;0.50;0.50;;;6.00;99.90;;;;;;4976485;28;20242;-92
2023/03/28 11:38:52;;;;;;;0.70;0.70;;;6.00;99.90;;;;;;4976223;28;20238;-91
2023/03/28 11:41:27;;;;;;;2.17;0.50;;;6.00;99.90;;;;;;4976844;28;20313;-90
2023/03/28 11:44:03;;;;;;;0.87;0.50;;;6.00;99.90;;;;;;4976160;28;20234;-92
2023/03/28 11:46:38;;;;;;;0.80;0.60;;;6.00;99.90;;;;;;4976902;28;20257;-91
2023/03/28 11:49:18;;;;;;;0.67;0.60;;;6.00;99.90;;;;;;4981533;28;20213;-92
2023/03/28 11:51:59;;;;;;;0.70;0.50;;;6.10;99.90;;;;;;4996338;28;20294;-92
2023/03/28 11:54:37;;;;;;;1.97;0.60;;;6.10;99.90;;;;;;4994488;28;20661;-92
2023/03/28 11:57:15;;;;;;;1.50;0.80;;;6.20;99.90;;;;;;4995210;28;20217;-92
2023/03/28 11:59:54;;;;;;;0.60;0.47;;;6.20;99.90;;;;;;4995596;28;20221;-92
2023/03/28 12:02:42;;;;;;;1.37;0.60;;;6.10;99.90;;;;;;4996073;28;20202;-90
2023/03/28 12:05:23;;;;;;;1.13;0.77;;;6.10;99.90;;;;;;4995578;28;20228;-92
2023/03/28 12:08:06;;;;;;;0.70;0.60;;;6.10;99.90;;;;;;4975490;28;20206;-92
2023/03/28 12:10:39;;;;;;;1.10;0.77;;;6.10;99.90;;;;;;4975940;28;20246;-93
2023/03/28 12:13:15;;;;;;;1.43;0.80;;;6.10;99.90;;;;;;4976150;28;20260;-91
2023/03/28 12:15:51;;;;;;;0.80;0.50;;;6.10;99.90;;;;;;4976019;28;20293;-91
2023/03/28 12:18:31;;;;;;;0.93;0.60;;;6.10;99.90;;;;;;4974882;28;20321;-92
2023/03/28 12:21:09;;;;;;;0.30;0.30;;;6.10;99.90;;;;;;4975747;28;20297;-92
2023/03/28 12:23:55;;;;;;;1.53;0.87;;;6.10;99.90;;;;;;4977248;28;20579;-89
2023/03/28 12:26:34;;;;;;;1.10;0.53;;;6.00;99.90;;;;;;4975389;28;20725;-90
2023/03/28 12:29:14;;;;;;;1.00;0.47;;;6.00;99.90;;;;;;4974926;28;20217;-90
2023/03/28 12:31:50;;;;;;;1.50;0.60;;;6.00;99.90;;;;;;4976681;28;20788;-91
2023/03/28 12:34:29;;;;;;;1.47;0.60;;;6.00;99.90;;;;;;4975761;28;20207;-91
2023/03/28 12:37:10;;;;;;;0.40;0.40;;;6.00;99.90;;;;;;4982767;28;20298;-90
2023/03/28 12:39:48;;;;;;;1.83;0.50;;;5.90;99.90;;;;;;5013546;28;20299;-91
2023/03/28 12:42:22;;;;;;;0.70;0.60;;;5.90;99.90;;;;;;4996717;28;20248;-89
2023/03/28 12:44:58;;;;;;;0.40;0.40;;;5.90;99.90;;;;;;4993771;28;20241;-91
2023/03/28 12:47:32;;;;;;;0.50;0.50;;;5.80;99.90;;;;;;4994162;28;20209;-91
2023/03/28 12:50:08;;;;;;;1.63;0.60;;;5.80;99.90;;;;;;4994853;28;20250;-92
2023/03/28 12:52:42;;;;;;;0.40;0.40;;;5.70;99.90;;;;;;4994945;28;20218;-91
2023/03/28 12:55:50;;;;;;;1.07;0.40;;;5.70;99.90;;;;;;4981748;28;20321;-91
2023/03/28 12:58:28;;;;;;;0.40;0.40;;;5.70;99.90;;;;;;4975752;28;20265;-92
2023/03/28 13:01:26;;;;;;;0.80;0.40;;;5.60;99.90;;;;;;4975998;28;20294;-90
2023/03/28 13:04:12;;;;;;;0.57;0.50;;;5.50;99.90;;;;;;4986383;28;20310;-92
2023/03/28 13:06:51;;;;;;;1.43;0.50;;;5.40;99.90;;;;;;4999673;28;20238;-92
2023/03/28 13:09:42;;;;;;;0.60;0.40;;;5.30;99.90;;;;;;4995829;28;20234;-93
2023/03/28 13:12:29;;;;;;;0.47;0.40;;;5.20;99.90;;;;;;4981269;28;20253;-92
2023/03/28 13:15:02;;;;;;;1.33;0.57;;;5.20;99.90;;;;;;4980210;28;20206;-92
2023/03/28 13:17:38;;;;;;;1.17;0.50;;;5.10;99.90;;;;;;4978944;28;20648;-91
2023/03/28 13:20:26;;;;;;;0.80;0.50;;;5.00;99.90;;;;;;4980021;28;20238;-91
2023/03/28 13:23:01;;;;;;;0.77;0.50;;;5.00;99.90;;;;;;4979724;28;20222;-92
2023/03/28 13:25:33;;;;;;;1.13;0.53;;;5.00;99.90;;;;;;4979589;28;20297;-90
2023/03/28 13:28:29;;;;;;;0.50;0.40;;;4.90;99.90;;;;;;4978354;28;20293;-90
2023/03/28 13:31:12;;;;;;;0.80;0.53;;;4.90;99.90;;;;;;4978458;28;20239;-91
2023/03/28 13:33:50;;;;;;;2.27;0.40;;;4.90;99.90;;;;;;4977301;28;20207;-90
2023/03/28 13:36:28;;;;;;;0.40;0.40;;;4.80;99.90;;;;;;4978285;28;20239;-90
2023/03/28 13:39:22;;;;;;;0.60;0.60;;;4.80;99.90;;;;;;4977940;28;20234;-90
2023/03/28 13:41:58;;;;;;;0.70;0.57;;;4.80;99.90;;;;;;4978729;28;20211;-90
2023/03/28 13:44:49;;;;;;;1.47;0.60;;;4.80;99.90;;;;;;4978587;28;20213;-90
2023/03/28 13:47:27;;;;;;;0.30;0.30;;;4.80;99.90;;;;;;4985080;28;20297;-91
2023/03/28 13:50:03;;;;;;;1.37;0.60;;;4.70;99.90;;;;;;4998264;28;20213;-90
2023/03/28 13:52:35;;;;;;;0.80;0.47;;;4.70;99.90;;;;;;4998627;28;20210;-90
2023/03/28 13:55:20;;;;;;;0.40;0.40;;;4.70;99.90;;;;;;4997859;28;20206;-91
2023/03/28 13:57:53;;;;;;;0.40;0.33;;;4.70;99.90;;;;;;5001804;28;20625;-90
2023/03/28 14:00:28;;;;;;;0.93;0.50;;;4.60;99.90;;;;;;5006587;28;20230;-90
2023/03/28 14:03:03;;;;;;;0.53;0.43;;;4.60;99.90;;;;;;5007977;28;20754;-90